createdAt,value
2019-04-14T00:01:17.479Z,22.83
2019-04-14T00:03:52.242Z,22.73
2019-04-14T00:06:22.416Z,13.50
2019-04-14T00:08:52.260Z,17.23
2019-04-14T00:11:21.818Z,26.77
2019-04-14T00:13:52.355Z,22.17
2019-04-14T00:16:22.784Z,27.17
2019-04-14T00:18:53.379Z,25.90
2019-04-14T00:21:23.640Z,20.00
2019-04-14T00:23:54.465Z,17.17
2019-04-14T00:26:33.676Z,33.77
2019-04-14T00:29:04.468Z,34.90
2019-04-14T00:31:34.951Z,28.87
2019-04-14T00:34:07.237Z,27.37
2019-04-14T00:36:41.619Z,20.07
2019-04-14T00:39:16.565Z,34.37
2019-04-14T00:41:55.169Z,21.90
2019-04-14T00:44:26.184Z,29.70
2019-04-14T00:46:58.176Z,23.07
2019-04-14T00:49:28.913Z,34.70
2019-04-14T00:51:59.328Z,34.17
2019-04-14T00:54:29.000Z,29.23
2019-04-14T00:56:58.613Z,34.87
2019-04-14T00:59:29.584Z,18.77
2019-04-14T01:01:59.203Z,30.00
2019-04-14T01:04:29.452Z,20.70
2019-04-14T01:07:00.133Z,30.10
2019-04-14T01:09:30.540Z,28.60
2019-04-14T01:12:01.796Z,36.30
2019-04-14T01:14:31.999Z,31.63
2019-04-14T01:17:02.647Z,24.63
2019-04-14T01:19:33.103Z,41.03
2019-04-14T01:22:03.207Z,18.80
2019-04-14T01:24:33.669Z,36.10
2019-04-14T01:27:03.968Z,24.23
2019-04-14T01:29:34.143Z,27.27
2019-04-14T01:32:04.550Z,26.33
2019-04-14T01:34:34.743Z,27.40
2019-04-14T01:37:05.158Z,34.93
2019-04-14T01:39:35.026Z,24.60
2019-04-14T01:42:04.989Z,31.23
2019-04-14T01:44:35.216Z,21.80
2019-04-14T01:47:05.319Z,19.37
2019-04-14T01:49:35.474Z,32.57
2019-04-14T01:52:23.199Z,34.40
2019-04-14T01:54:54.421Z,34.20
2019-04-14T01:57:35.024Z,30.10
2019-04-14T02:00:16.317Z,17.63
2019-04-14T02:02:46.527Z,27.77
2019-04-14T02:05:16.822Z,20.43
2019-04-14T02:07:47.231Z,27.27
2019-04-14T02:10:17.240Z,25.80
2019-04-14T02:12:47.361Z,31.63
2019-04-14T02:15:17.937Z,24.50
2019-04-14T02:17:48.167Z,24.03
2019-04-14T02:20:18.577Z,24.10
2019-04-14T02:22:48.452Z,25.23
2019-04-14T02:25:18.855Z,23.40
2019-04-14T02:27:49.371Z,25.10
2019-04-14T02:30:23.321Z,33.23
2019-04-14T02:33:46.644Z,18.97
2019-04-14T02:36:11.998Z,20.57
2019-04-14T02:38:36.091Z,33.60
2019-04-14T02:40:57.995Z,17.40
2019-04-14T02:43:27.614Z,26.90
2019-04-14T02:45:57.473Z,30.90
2019-04-14T02:48:36.122Z,19.27
2019-04-14T02:50:55.897Z,21.53
2019-04-14T02:53:23.857Z,23.50
2019-04-14T02:55:57.804Z,22.20
2019-04-14T02:58:48.227Z,20.33
2019-04-14T03:03:43.644Z,27.07
2019-04-14T03:06:08.388Z,18.53
2019-04-14T03:08:45.110Z,18.17
2019-04-14T03:11:07.080Z,29.23
2019-04-14T03:13:35.089Z,28.10
2019-04-14T03:21:34.576Z,16.87
2019-04-14T03:24:12.793Z,27.47
2019-04-14T03:26:49.423Z,18.70
2019-04-14T03:29:37.066Z,20.43
2019-04-14T03:32:35.978Z,22.00
2019-04-14T03:34:55.343Z,26.93
2019-04-14T03:39:46.212Z,24.00
2019-04-14T03:44:56.547Z,26.73
2019-04-14T03:47:25.579Z,29.77
2019-04-14T03:49:45.119Z,17.37
2019-04-14T03:54:45.479Z,23.63
2019-04-14T03:56:55.897Z,26.30
2019-04-14T03:59:26.143Z,29.23
2019-04-14T04:01:56.606Z,24.47
2019-04-14T04:04:27.447Z,27.83
2019-04-14T04:06:57.478Z,28.50
2019-04-14T04:09:32.180Z,29.73
2019-04-14T04:12:03.029Z,27.70
2019-04-14T04:14:33.465Z,26.77
2019-04-14T04:17:23.310Z,21.57
2019-04-14T04:19:55.535Z,20.80
2019-04-14T04:22:26.716Z,29.30
2019-04-14T04:24:58.589Z,32.07
2019-04-14T04:27:39.517Z,33.10
2019-04-14T04:30:12.304Z,29.40
2019-04-14T04:33:06.593Z,33.00
2019-04-14T04:35:50.126Z,32.00
2019-04-14T04:38:22.313Z,22.00
2019-04-14T04:40:52.877Z,32.23
2019-04-14T04:43:23.320Z,19.40
2019-04-14T04:45:53.796Z,29.20
2019-04-14T04:48:24.222Z,17.67
2019-04-14T04:50:54.240Z,22.60
2019-04-14T04:53:24.485Z,15.57
2019-04-14T04:55:54.659Z,28.73
2019-04-14T04:58:24.203Z,25.33
2019-04-14T05:00:54.939Z,26.57
2019-04-14T05:03:25.424Z,28.07
2019-04-14T05:06:11.734Z,31.20
2019-04-14T05:08:43.472Z,33.13
2019-04-14T05:11:14.721Z,28.07
2019-04-14T05:13:46.825Z,26.00
2019-04-14T05:16:17.079Z,28.07
2019-04-14T05:18:46.605Z,32.27
2019-04-14T05:21:17.079Z,15.80
2019-04-14T05:23:47.406Z,18.70
2019-04-14T05:26:17.810Z,18.23
2019-04-14T05:28:48.437Z,16.73
2019-04-14T05:31:18.589Z,27.03
2019-04-14T05:33:49.011Z,21.00
2019-04-14T05:36:19.277Z,21.90
2019-04-14T05:38:49.597Z,16.67
2019-04-14T05:41:20.141Z,34.10
2019-04-14T05:43:54.893Z,14.53
2019-04-14T05:46:20.878Z,19.53
2019-04-14T05:48:51.390Z,25.73
2019-04-14T05:51:23.152Z,25.20
2019-04-14T05:53:52.426Z,14.43
2019-04-14T05:56:23.060Z,14.67
2019-04-14T05:58:53.626Z,15.00
2019-04-14T06:01:23.235Z,14.23
2019-04-14T06:03:53.855Z,14.90
2019-04-14T06:06:23.386Z,16.90
2019-04-14T06:08:52.827Z,17.70
2019-04-14T06:11:22.319Z,15.87
2019-04-14T06:13:51.750Z,16.50
2019-04-14T06:16:21.204Z,35.60
2019-04-14T06:18:50.678Z,14.20
2019-04-14T06:21:20.154Z,90.47
2019-04-14T06:23:49.608Z,17.80
2019-04-14T06:26:19.179Z,23.50
2019-04-14T06:28:48.634Z,18.77
2019-04-14T06:31:36.118Z,15.37
2019-04-14T06:34:23.666Z,18.50
2019-04-14T06:37:00.508Z,22.00
2019-04-14T06:39:34.574Z,21.50
2019-04-14T06:42:04.282Z,28.90
2019-04-14T06:44:34.760Z,18.43
2019-04-14T06:47:04.222Z,20.93
2019-04-14T06:49:33.670Z,106.00
2019-04-14T06:52:03.134Z,36.03
2019-04-14T06:54:32.584Z,18.30
2019-04-14T06:57:02.065Z,27.13
2019-04-14T06:59:31.581Z,17.70
2019-04-14T07:02:01.899Z,17.23
2019-04-14T07:04:31.494Z,16.77
2019-04-14T07:07:00.986Z,17.70
2019-04-14T07:09:30.447Z,17.50
2019-04-14T07:12:00.013Z,18.27
2019-04-14T07:14:31.900Z,19.07
2019-04-14T07:17:02.208Z,17.60
2019-04-14T07:19:31.678Z,19.50
2019-04-14T07:22:01.126Z,18.30
2019-04-14T07:24:30.620Z,17.43
2019-04-14T07:27:00.115Z,17.10
2019-04-14T07:29:31.203Z,31.30
2019-04-14T07:32:04.865Z,17.10
2019-04-14T07:34:38.626Z,35.20
2019-04-14T07:37:26.128Z,52.20
2019-04-14T07:40:09.146Z,19.30
2019-04-14T07:42:43.034Z,30.20
2019-04-14T07:45:23.419Z,16.87
2019-04-14T07:47:54.535Z,18.33
2019-04-14T07:50:37.390Z,15.90
2019-04-14T07:53:24.820Z,16.47
2019-04-14T07:55:56.271Z,18.60
2019-04-14T07:58:29.947Z,16.63
2019-04-14T08:01:06.824Z,16.00
2019-04-14T08:03:37.947Z,18.23
2019-04-14T08:06:07.394Z,16.27
2019-04-14T08:08:36.912Z,18.07
2019-04-14T08:11:06.381Z,17.60
2019-04-14T08:13:35.847Z,16.03
2019-04-14T08:16:05.278Z,15.83
2019-04-14T08:18:34.746Z,15.77
2019-04-14T08:21:04.354Z,14.20
2019-04-14T08:23:33.832Z,15.93
2019-04-14T08:26:03.295Z,16.77
2019-04-14T08:28:32.754Z,42.87
2019-04-14T08:31:02.200Z,18.53
2019-04-14T08:33:31.682Z,29.27
2019-04-14T08:36:01.119Z,52.27
2019-04-14T08:38:30.601Z,44.80
2019-04-14T08:41:00.142Z,42.23
2019-04-14T08:43:33.678Z,27.93
2019-04-14T08:46:22.875Z,18.90
2019-04-14T08:48:56.614Z,18.67
2019-04-14T08:51:27.733Z,16.80
2019-04-14T08:53:58.855Z,19.67
2019-04-14T08:56:29.928Z,17.43
2019-04-14T08:59:19.182Z,20.67
2019-04-14T09:01:56.418Z,23.87
2019-04-14T09:04:42.579Z,20.90
2019-04-14T09:07:16.256Z,17.77
2019-04-14T09:09:47.376Z,20.30
2019-04-14T09:12:18.542Z,25.27
2019-04-14T09:14:56.729Z,26.93
2019-04-14T09:17:19.214Z,24.80
2019-04-14T09:19:48.733Z,42.63
2019-04-14T09:22:18.206Z,57.57
2019-04-14T09:24:49.216Z,17.07
2019-04-14T09:27:18.660Z,20.20
2019-04-14T09:29:48.119Z,20.37
2019-04-14T09:32:17.774Z,16.67
2019-04-14T09:34:47.227Z,16.80
2019-04-14T09:37:16.695Z,17.10
2019-04-14T09:39:46.164Z,17.07
2019-04-14T09:42:15.609Z,17.20
2019-04-14T09:44:45.068Z,17.50
2019-04-14T09:47:14.566Z,17.20
2019-04-14T09:49:44.077Z,17.53
2019-04-14T09:52:13.600Z,25.10
2019-04-14T09:54:43.214Z,19.00
2019-04-14T09:57:12.670Z,22.70
2019-04-14T09:59:42.200Z,22.83
2019-04-14T10:02:11.668Z,16.40
2019-04-14T10:04:41.131Z,16.90
2019-04-14T10:07:10.587Z,15.80
2019-04-14T10:09:40.116Z,15.53
2019-04-14T10:12:09.608Z,15.20
2019-04-14T10:14:39.063Z,16.43
2019-04-14T10:17:08.611Z,14.00
2019-04-14T10:19:38.147Z,16.70
2019-04-14T10:22:07.640Z,14.40
2019-04-14T10:24:37.279Z,15.10
2019-04-14T10:27:06.756Z,15.77
2019-04-14T10:29:36.241Z,16.10
2019-04-14T10:32:05.694Z,13.70
2019-04-14T10:34:35.250Z,14.40
2019-04-14T10:37:04.711Z,15.30
2019-04-14T10:39:34.412Z,14.90
2019-04-14T10:42:03.874Z,15.70
2019-04-14T10:44:33.319Z,15.20
2019-04-14T10:47:02.816Z,14.83
2019-04-14T10:49:32.279Z,14.43
2019-04-14T10:52:01.767Z,14.53
2019-04-14T10:54:31.317Z,14.27
2019-04-14T10:57:01.221Z,15.03
2019-04-14T10:59:30.949Z,12.97
2019-04-14T11:02:00.404Z,14.90
2019-04-14T11:04:29.901Z,14.03
2019-04-14T11:07:00.991Z,13.60
2019-04-14T11:09:30.469Z,15.17
2019-04-14T11:11:59.999Z,15.10
2019-04-14T11:14:29.553Z,14.63
2019-04-14T11:17:00.545Z,16.23
2019-04-14T11:19:30.007Z,17.53
2019-04-14T11:21:59.570Z,17.73
2019-04-14T11:24:29.020Z,14.53
2019-04-14T11:26:58.566Z,15.30
2019-04-14T11:29:28.084Z,14.90
2019-04-14T11:31:59.269Z,14.07
2019-04-14T11:34:36.206Z,12.73
2019-04-14T11:37:23.387Z,14.57
2019-04-14T11:39:52.860Z,14.30
2019-04-14T11:42:22.332Z,13.00
2019-04-14T11:44:51.778Z,12.57
2019-04-14T11:47:21.841Z,14.43
2019-04-14T11:49:52.377Z,11.50
2019-04-14T11:52:21.832Z,14.67
2019-04-14T11:54:51.474Z,16.03
2019-04-14T11:57:20.917Z,13.77
2019-04-14T11:59:52.065Z,14.63
2019-04-14T12:02:29.144Z,13.67
2019-04-14T12:05:08.976Z,12.80
2019-04-14T12:07:42.522Z,13.50
2019-04-14T12:10:13.050Z,11.27
2019-04-14T12:12:42.668Z,13.03
2019-04-14T12:15:16.538Z,13.27
2019-04-14T12:17:44.240Z,11.80
2019-04-14T12:20:13.961Z,11.43
2019-04-14T12:22:43.426Z,12.13
2019-04-14T12:25:12.985Z,12.47
2019-04-14T12:27:42.466Z,11.70
2019-04-14T12:30:13.679Z,12.60
2019-04-14T12:32:43.348Z,12.90
2019-04-14T12:35:13.795Z,11.40
2019-04-14T12:37:43.248Z,12.43
2019-04-14T12:40:12.877Z,12.47
2019-04-14T12:42:52.684Z,11.87
2019-04-14T12:45:41.974Z,11.30
2019-04-14T12:48:15.883Z,12.43
2019-04-14T12:50:52.859Z,12.87
2019-04-14T12:53:22.303Z,12.77
2019-04-14T12:55:51.750Z,12.70
2019-04-14T12:58:23.625Z,12.93
2019-04-14T13:00:54.726Z,10.77
2019-04-14T13:03:24.698Z,12.90
2019-04-14T13:05:54.141Z,13.10
2019-04-14T13:08:23.617Z,11.60
2019-04-14T13:10:53.099Z,12.17
2019-04-14T13:13:22.585Z,12.87
2019-04-14T13:15:52.104Z,10.87
2019-04-14T13:18:21.580Z,10.20
2019-04-14T13:20:51.055Z,9.73
2019-04-14T13:23:20.501Z,11.20
2019-04-14T13:25:49.959Z,11.13
2019-04-14T13:28:19.396Z,10.90
2019-04-14T13:30:50.770Z,10.60
2019-04-14T13:33:20.252Z,11.17
2019-04-14T13:35:49.718Z,11.13
2019-04-14T13:38:19.255Z,11.83
2019-04-14T13:40:48.702Z,9.87
2019-04-14T13:43:18.184Z,10.90
2019-04-14T13:45:47.666Z,10.60
2019-04-14T13:48:18.785Z,11.37
2019-04-14T13:50:48.233Z,13.03
2019-04-14T13:53:17.695Z,10.70
2019-04-14T13:55:47.174Z,10.63
2019-04-14T13:58:16.612Z,9.47
2019-04-14T14:00:46.109Z,10.20
2019-04-14T14:03:15.565Z,9.83
2019-04-14T14:05:45.017Z,9.90
2019-04-14T14:08:16.595Z,8.33
2019-04-14T14:10:51.849Z,9.30
2019-04-14T14:13:28.505Z,9.50
2019-04-14T14:16:05.378Z,8.87
2019-04-14T14:18:45.583Z,9.43
2019-04-14T14:21:33.108Z,10.07
2019-04-14T14:24:20.331Z,9.67
2019-04-14T14:26:51.434Z,8.83
2019-04-14T14:29:20.898Z,10.17
2019-04-14T14:31:50.923Z,8.50
2019-04-14T14:34:20.490Z,8.57
2019-04-14T14:36:50.004Z,10.03
2019-04-14T14:39:20.922Z,8.77
2019-04-14T14:41:50.726Z,9.27
2019-04-14T14:44:21.611Z,9.63
2019-04-14T14:47:04.424Z,8.70
2019-04-14T14:49:40.519Z,9.00
2019-04-14T14:52:11.663Z,9.53
2019-04-14T14:54:41.392Z,8.77
2019-04-14T14:57:10.830Z,9.70
2019-04-14T14:59:40.580Z,8.50
2019-04-14T15:02:10.092Z,10.07
2019-04-14T15:04:39.646Z,8.90
2019-04-14T15:07:09.112Z,10.00
2019-04-14T15:09:38.584Z,9.50
2019-04-14T15:12:08.031Z,9.13
2019-04-14T15:14:37.530Z,9.90
2019-04-14T15:17:08.479Z,7.50
2019-04-14T15:19:38.083Z,8.73
2019-04-14T15:22:07.610Z,8.97
2019-04-14T15:24:37.199Z,9.00
2019-04-14T15:27:06.948Z,9.20
2019-04-14T15:29:36.441Z,9.60
2019-04-14T15:32:05.963Z,9.00
2019-04-14T15:34:35.396Z,9.57
2019-04-14T15:37:05.084Z,9.03
2019-04-14T15:39:37.420Z,9.40
2019-04-14T15:42:05.837Z,9.97
2019-04-14T15:44:35.304Z,9.30
2019-04-14T15:47:04.739Z,9.37
2019-04-14T15:49:34.180Z,8.80
2019-04-14T15:52:03.653Z,8.83
2019-04-14T15:54:33.107Z,8.53
2019-04-14T15:57:04.189Z,9.07
2019-04-14T15:59:43.973Z,8.80
2019-04-14T16:02:17.801Z,8.90
2019-04-14T16:05:00.632Z,9.47
2019-04-14T16:07:49.673Z,8.87
2019-04-14T16:10:36.792Z,9.50
2019-04-14T16:13:07.875Z,9.13
2019-04-14T16:15:38.964Z,9.17
2019-04-14T16:18:12.621Z,8.97
2019-04-14T16:20:43.700Z,7.43
2019-04-14T16:23:13.224Z,7.73
2019-04-14T16:25:47.318Z,8.17
2019-04-14T16:28:30.510Z,8.00
2019-04-14T16:31:04.170Z,8.40
2019-04-14T16:33:51.601Z,8.47
2019-04-14T16:36:21.090Z,8.57
2019-04-14T16:38:50.551Z,9.13
2019-04-14T16:41:20.325Z,8.17
2019-04-14T16:43:50.294Z,8.70
2019-04-14T16:46:19.818Z,8.50
2019-04-14T16:48:49.258Z,8.03
2019-04-14T16:51:23.982Z,7.70
2019-04-14T16:54:03.016Z,8.70
2019-04-14T16:56:26.498Z,8.30
2019-04-14T16:58:57.611Z,7.80
2019-04-14T17:01:31.158Z,7.73
2019-04-14T17:04:00.677Z,9.57
2019-04-14T17:06:30.147Z,8.47
2019-04-14T17:08:59.589Z,7.50
2019-04-14T17:11:29.038Z,8.87
2019-04-14T17:14:12.162Z,9.30
2019-04-14T17:16:43.254Z,8.40
2019-04-14T17:19:23.174Z,7.80
2019-04-14T17:21:54.293Z,8.73
2019-04-14T17:24:34.339Z,8.00
2019-04-14T17:27:05.508Z,8.70
2019-04-14T17:29:39.158Z,8.37
2019-04-14T17:32:26.610Z,7.33
2019-04-14T17:35:00.276Z,7.30
2019-04-14T17:37:43.250Z,6.80
2019-04-14T17:40:32.932Z,7.60
2019-04-14T17:43:06.165Z,8.17
2019-04-14T17:45:37.337Z,7.63
2019-04-14T17:48:24.617Z,8.47
2019-04-14T17:51:10.963Z,7.90
2019-04-14T17:53:54.342Z,7.73
2019-04-14T17:56:31.008Z,7.93
2019-04-14T17:59:02.083Z,7.80
2019-04-14T18:01:39.223Z,8.50
2019-04-14T18:04:19.614Z,8.87
2019-04-14T18:06:50.733Z,9.27
2019-04-14T18:09:24.652Z,7.37
2019-04-14T18:12:04.648Z,7.83
2019-04-14T18:14:35.748Z,8.80
2019-04-14T18:17:11.346Z,7.60
2019-04-14T18:19:55.958Z,7.60
2019-04-14T18:22:25.450Z,8.93
2019-04-14T18:24:55.558Z,8.10
2019-04-14T18:27:24.995Z,7.10
2019-04-14T18:30:01.787Z,8.23
2019-04-14T18:32:42.308Z,7.40
2019-04-14T18:35:16.040Z,9.73
2019-04-14T18:37:56.515Z,8.93
2019-04-14T18:40:31.333Z,7.40
2019-04-14T18:43:03.123Z,6.67
2019-04-14T18:45:42.765Z,7.40
2019-04-14T18:48:30.967Z,9.70
2019-04-14T18:51:17.219Z,7.33
2019-04-14T18:53:54.142Z,7.60
2019-04-14T18:56:40.490Z,7.57
2019-04-14T18:59:17.252Z,8.30
2019-04-14T19:01:50.869Z,8.00
2019-04-14T19:04:20.319Z,7.20
2019-04-14T19:06:49.807Z,8.93
2019-04-14T19:09:21.516Z,7.10
2019-04-14T19:12:08.798Z,7.73
2019-04-14T19:14:40.174Z,7.90
2019-04-14T19:17:11.274Z,7.83
2019-04-14T19:19:45.140Z,7.23
2019-04-14T19:22:14.594Z,6.93
2019-04-14T19:24:44.051Z,7.60
2019-04-14T19:27:13.571Z,7.97
2019-04-14T19:29:43.032Z,8.83
2019-04-14T19:32:12.487Z,6.67
2019-04-14T19:34:43.143Z,7.30
2019-04-14T19:37:12.646Z,7.43
2019-04-14T19:39:42.093Z,7.63
2019-04-14T19:45:07.943Z,8.07
2019-04-14T19:47:37.430Z,8.20
2019-04-14T19:50:07.406Z,7.27
2019-04-14T19:52:36.846Z,8.00
2019-04-14T19:55:19.959Z,8.00
2019-04-14T19:57:39.290Z,7.50
2019-04-14T20:00:09.535Z,7.60
2019-04-14T20:02:39.008Z,7.43
2019-04-14T20:05:10.171Z,7.87
2019-04-14T20:07:39.718Z,6.43
2019-04-14T20:10:11.720Z,7.53
2019-04-14T20:12:41.176Z,6.77
2019-04-14T20:15:13.134Z,7.33
2019-04-14T20:18:02.542Z,6.40
2019-04-14T20:20:49.839Z,6.43
2019-04-14T20:23:36.023Z,7.80
2019-04-14T20:26:09.930Z,6.80
2019-04-14T20:28:46.625Z,7.90
2019-04-14T20:31:29.931Z,6.97
2019-04-14T20:33:59.551Z,6.83
2019-04-14T20:36:30.657Z,7.67
2019-04-14T20:39:00.121Z,7.80
2019-04-14T20:41:29.700Z,5.60
2019-04-14T20:44:01.682Z,7.20
2019-04-14T20:46:30.465Z,7.30
2019-04-14T20:48:59.915Z,9.63
2019-04-14T20:51:29.472Z,7.80
2019-04-14T20:53:58.927Z,8.80
2019-04-14T20:56:28.384Z,8.90
2019-04-14T20:58:57.877Z,9.80
2019-04-14T21:01:29.120Z,7.80
2019-04-14T21:04:06.327Z,9.17
2019-04-14T21:06:49.263Z,9.97
2019-04-14T21:09:22.918Z,9.87
2019-04-14T21:12:09.987Z,9.30
2019-04-14T21:14:47.006Z,9.40
2019-04-14T21:17:18.478Z,10.47
2019-04-14T21:19:49.569Z,9.77
2019-04-14T21:22:35.737Z,11.00
2019-04-14T21:25:17.344Z,12.10
2019-04-14T21:27:54.018Z,12.50
2019-04-14T21:30:27.713Z,13.03
2019-04-14T21:33:01.623Z,11.13
2019-04-14T21:35:34.282Z,10.63
2019-04-14T21:38:20.319Z,11.40
2019-04-14T21:40:51.471Z,8.90
2019-04-14T21:43:20.954Z,9.17
2019-04-14T21:45:50.480Z,9.30
2019-04-14T21:48:19.969Z,7.80
2019-04-14T21:50:49.491Z,8.60
2019-04-14T21:53:18.966Z,7.97
2019-04-14T21:55:48.438Z,8.17
2019-04-14T21:58:25.444Z,9.10
2019-04-14T22:01:34.899Z,9.10
2019-04-14T22:04:15.432Z,9.93
2019-04-14T22:06:49.438Z,8.73
2019-04-14T22:09:20.540Z,8.83
2019-04-14T22:11:50.008Z,7.97
2019-04-14T22:14:19.560Z,10.20
2019-04-14T22:16:49.032Z,8.23
2019-04-14T22:19:19.447Z,8.93
2019-04-14T22:21:48.932Z,9.10
2019-04-14T22:24:18.393Z,7.93
2019-04-14T22:26:47.854Z,8.17
2019-04-14T22:29:17.295Z,8.80
2019-04-14T22:31:46.812Z,8.47
2019-04-14T22:34:16.324Z,7.60
2019-04-14T22:36:45.842Z,8.30
2019-04-14T22:39:16.857Z,8.40
2019-04-14T22:41:46.335Z,8.90
2019-04-14T22:44:15.873Z,8.10
2019-04-14T22:46:45.319Z,8.70
2019-04-14T22:49:14.789Z,8.60
2019-04-14T22:51:44.347Z,8.67
2019-04-14T22:54:13.789Z,8.00
2019-04-14T22:56:43.283Z,8.83
2019-04-14T22:59:12.733Z,8.23
2019-04-14T23:01:43.844Z,8.13
2019-04-14T23:04:14.938Z,8.33
2019-04-14T23:07:02.151Z,8.73
2019-04-14T23:09:41.687Z,9.63
2019-04-14T23:12:25.006Z,8.17
2019-04-14T23:14:56.152Z,7.20
2019-04-14T23:17:43.236Z,8.17
2019-04-14T23:20:18.581Z,7.70
2019-04-14T23:23:05.902Z,7.67
2019-04-14T23:25:35.628Z,8.70
2019-04-14T23:28:05.290Z,7.30
2019-04-14T23:30:34.733Z,7.83
2019-04-14T23:33:04.183Z,10.53
2019-04-14T23:35:33.670Z,7.70
2019-04-14T23:38:03.160Z,7.00
2019-04-14T23:40:32.596Z,8.97
2019-04-14T23:43:02.111Z,8.60
2019-04-14T23:45:31.621Z,8.97
2019-04-14T23:48:01.078Z,7.87
2019-04-14T23:50:30.551Z,8.43
2019-04-14T23:53:00.039Z,8.30
2019-04-14T23:55:29.492Z,9.30
2019-04-14T23:57:59.012Z,8.77
